Huvudsida
METAR-TAF:

METAR-TAF

Flygplatser :

Tromsø flygplats

Tromsø, Norge

latitud: 69-41N, longitud: 018-55E, höjd: 1 m

Aktuellt väderrapport

Denna rapport gjordes för 14 minuter sedan, klockan 04:20 UTC
Vind 7 kt från nord
Temperatur -5°C
Fuktighet 73%
Tryck 993 hPa
Sikt 10 km eller mer
Få moln på en höjd av 2100 ft
Brutna moln på en höjd av 5300 ft

METAR: ENTC 190420Z 01007KT 9999 FEW021 BKN053 M05/M09 Q0993 RMK WIND 2600FT 01013KT

Tid: 05:34 (04:34 UTC)

Väderprognos

Prognos gäller från 19 kl. 00 UTC till 19 kl. 24 UTC
Vind 5 kt från nord/nordost
Sikt 10 km eller mer
Få moln på en höjd av 1500 ft, Högtornande cumulus.
Temporärt
från 19 kl. 06 UTC till 19 kl. 24 UTC
Vind 15 kt från syd/sydväst
Sannolikhet 40%
från 19 kl. 00 UTC till 19 kl. 24 UTC
Sikt: 2000 m
på en höjd av 800 ft
snöbyar

TAF: ENTC 1900/1924 03005KT 9999 FEW015TCU TEMPO 1906/1924 20015KT PROB40 1900/1924 2000 SHSN VV008

Aktuella väderrapporter och prognoser från 4000 flygplatser (METAR- och TAF-rapporter).

De tillgängliga stationerna syns som gula och röda prickar på kartan.

För musen över prickarna för att se namnen på stationerna.

Klicka sedan för att få väderrapporter och prognoser.

För att ändra kartan: Klicka på de gröna knapparna med ett svart kors på för att zooma in; den gröna knappen med ett streck på för att zooma ut; eller på de gröna pilarna för angränsande kartor.


METAR-TAF: